Time;durP1;ratioP1;P1;durP2;ratioP2;P2;SDS_P1;SDS_P2;PMS_P1;PMS_P2;Temp;Humidity;BMP_temperature;BMP_pressure;BME280_temperature;BME280_humidity;BME280_pressure;Samples;Min_cycle;Max_cycle;Signal;HPM_P1;HPM_P2
2023/02/14 00:01:45;;;;;;;;;;;;;;;22.51;25.94;99883.50;5109304;28;20268;-88
2023/02/14 00:04:12;;;;;;;;;;;;;;;22.48;25.95;99876.66;5110890;28;20312;-88
2023/02/14 00:06:38;;;;;;;;;;;;;;;22.11;26.32;99877.72;5113107;28;19981;-88
2023/02/14 00:09:05;;;;;;;;;;;;;;;22.82;25.63;99874.72;5110540;28;19923;-88
2023/02/14 00:11:32;;;;;;;;;;;;;;;23.34;24.99;99882.06;5108733;27;19920;-88
2023/02/14 00:16:43;;;;;;;;;;;;;;;23.40;24.60;99872.16;5111125;28;20012;-88
2023/02/14 00:19:14;;;;;;;;;;;;;;;23.04;25.23;99870.16;5104052;27;19927;-88
2023/02/14 00:21:40;;;;;;;;;;;;;;;22.85;25.34;99870.34;5113754;28;20007;-88
2023/02/14 00:24:07;;;;;;;;;;;;;;;22.66;25.72;99876.94;5105480;27;19920;-87
2023/02/14 00:26:33;;;;;;;;;;;;;;;21.81;26.96;99869.25;5114622;28;19920;-88
2023/02/14 00:29:00;;;;;;;;;;;;;;;21.54;26.98;99868.41;5108810;28;19919;-87
2023/02/14 00:31:26;;;;;;;;;;;;;;;21.97;26.54;99867.97;5109146;28;19920;-88
2023/02/14 00:33:52;;;;;;;;;;;;;;;22.73;25.15;99863.03;5106381;28;19926;-88
2023/02/14 00:36:19;;;;;;;;;;;;;;;21.99;26.43;99868.38;5105199;28;19923;-88
2023/02/14 00:38:45;;;;;;;;;;;;;;;22.30;25.93;99866.41;5112205;28;19965;-88
2023/02/14 00:41:18;;;;;;;;;;;;;;;22.51;25.83;99872.31;5106869;28;20311;-88
2023/02/14 00:43:47;;;;;;;;;;;;;;;21.51;26.94;99865.56;5109965;28;19920;-87
2023/02/14 00:46:13;;;;;;;;;;;;;;;21.67;27.09;99869.84;5106388;28;19928;-87
2023/02/14 00:48:40;;;;;;;;;;;;;;;21.98;26.28;99868.78;5108397;28;19926;-88
2023/02/14 00:51:06;;;;;;;;;;;;;;;21.11;27.40;99875.25;5109244;27;19920;-88
2023/02/14 00:53:32;;;;;;;;;;;;;;;21.25;27.36;99860.75;5107116;27;19920;-88
2023/02/14 00:55:58;;;;;;;;;;;;;;;21.09;27.62;99871.22;5104898;28;19920;-88
2023/02/14 00:58:24;;;;;;;;;;;;;;;21.25;27.35;99866.31;5109378;28;19927;-88
2023/02/14 01:00:51;;;;;;;;;;;;;;;21.26;27.63;99863.16;5113246;28;19967;-88
2023/02/14 01:03:17;;;;;;;;;;;;;;;21.17;27.46;99865.38;5111457;28;19923;-88
2023/02/14 01:05:43;;;;;;;;;;;;;;;21.66;26.87;99859.03;5105929;28;19931;-88
2023/02/14 01:08:09;;;;;;;;;;;;;;;21.75;26.46;99856.78;5110993;28;19924;-88
2023/02/14 01:10:36;;;;;;;;;;;;;;;21.64;26.81;99856.63;5109219;28;19920;-87
2023/02/14 01:13:02;;;;;;;;;;;;;;;21.71;26.65;99862.31;5113965;28;20336;-88
2023/02/14 01:15:29;;;;;;;;;;;;;;;21.65;26.50;99860.22;5122967;27;19920;-87
2023/02/14 01:17:56;;;;;;;;;;;;;;;20.99;27.66;99852.25;5094234;28;20883;-87
2023/02/14 01:20:22;;;;;;;;;;;;;;;21.48;27.01;99852.34;5096307;28;19927;-88
2023/02/14 01:22:48;;;;;;;;;;;;;;;21.25;27.02;99855.97;5105494;28;19973;-87
2023/02/14 01:25:15;;;;;;;;;;;;;;;20.99;27.78;99869.81;5108109;28;19920;-87
2023/02/14 01:27:41;;;;;;;;;;;;;;;21.95;26.12;99850.75;5107849;28;20429;-88
2023/02/14 01:30:08;;;;;;;;;;;;;;;20.97;27.19;99863.78;5104500;28;19927;-88
2023/02/14 01:32:34;;;;;;;;;;;;;;;21.85;26.57;99856.16;5118563;27;19923;-87
2023/02/14 01:35:00;;;;;;;;;;;;;;;22.07;26.01;99855.31;5107950;28;19930;-87
2023/02/14 01:37:26;;;;;;;;;;;;;;;22.05;26.09;99854.88;5099637;28;19920;-87
2023/02/14 01:39:52;;;;;;;;;;;;;;;21.36;26.85;99864.53;5110292;28;19965;-87
2023/02/14 01:42:18;;;;;;;;;;;;;;;21.94;26.16;99854.72;5097148;28;19932;-88
2023/02/14 01:44:44;;;;;;;;;;;;;;;21.88;26.02;99852.63;5110303;28;19928;-88
2023/02/14 01:47:11;;;;;;;;;;;;;;;21.66;26.44;99859.03;5107011;28;20264;-88
2023/02/14 01:49:43;;;;;;;;;;;;;;;21.29;26.98;99856.00;5084449;28;19931;-87
2023/02/14 01:52:24;;;;;;;;;;;;;;;21.88;26.38;99855.44;5107655;28;19966;-87
2023/02/14 01:54:55;;;;;;;;;;;;;;;22.40;25.42;99854.56;5111683;28;19954;-87
2023/02/14 01:57:23;;;;;;;;;;;;;;;22.76;24.98;99842.63;5103618;28;20371;-87
2023/02/14 01:59:54;;;;;;;;;;;;;;;23.08;24.59;99851.41;5101427;28;20322;-87
2023/02/14 02:02:22;;;;;;;;;;;;;;;22.93;24.92;99849.63;5100595;28;19943;-87
2023/02/14 02:04:50;;;;;;;;;;;;;;;22.56;25.30;99843.97;5102667;28;19927;-87
2023/02/14 02:07:17;;;;;;;;;;;;;;;22.22;25.59;99845.91;5113339;28;19927;-87
2023/02/14 02:09:59;;;;;;;;;;;;;;;22.92;24.92;99850.84;5113314;28;19959;-87
2023/02/14 02:12:25;;;;;;;;;;;;;;;21.62;26.30;99845.00;5098954;28;20302;-87
2023/02/14 02:14:53;;;;;;;;;;;;;;;21.93;26.02;99836.34;5109447;28;20022;-87
2023/02/14 02:17:25;;;;;;;;;;;;;;;21.95;26.03;99830.34;5106132;28;19927;-87
2023/02/14 02:20:10;;;;;;;;;;;;;;;21.38;26.48;99837.00;5111137;28;19927;-87
2023/02/14 02:22:51;;;;;;;;;;;;;;;21.52;26.46;99840.03;5104491;28;19920;-87
2023/02/14 02:25:40;;;;;;;;;;;;;;;21.06;26.94;99842.03;5098104;28;20331;-88
2023/02/14 02:28:12;;;;;;;;;;;;;;;21.46;26.55;99835.16;5057980;28;19920;-88
2023/02/14 02:30:44;;;;;;;;;;;;;;;21.79;26.34;99841.69;5106266;28;20003;-88
2023/02/14 02:33:10;;;;;;;;;;;;;;;21.02;27.46;99837.53;5102761;28;19920;-87
2023/02/14 02:35:51;;;;;;;;;;;;;;;20.85;27.33;99844.41;5112587;28;19931;-87
2023/02/14 02:38:26;;;;;;;;;;;;;;;21.40;26.81;99848.63;5114141;28;19920;-88
2023/02/14 02:41:00;;;;;;;;;;;;;;;21.74;26.28;99847.59;5114100;28;19965;-88
2023/02/14 02:43:38;;;;;;;;;;;;;;;21.70;26.07;99849.53;5111062;28;20290;-88
2023/02/14 02:53:01;;;;;;;;;;;;;;;21.97;26.01;99833.59;5111895;28;20413;-88
2023/02/14 02:54:51;;;;;;;;;;;;;;;22.07;25.73;99846.09;5113803;28;20382;-87
2023/02/14 02:57:23;;;;;;;;;;;;;;;22.34;25.27;99845.69;5085175;28;19926;-88
2023/02/14 02:59:51;;;;;;;;;;;;;;;22.03;25.80;99840.47;5105544;28;19919;-87
2023/02/14 03:02:22;;;;;;;;;;;;;;;21.22;27.29;99842.72;5114150;28;20382;-87
2023/02/14 03:04:55;;;;;;;;;;;;;;;21.40;26.76;99843.03;5099532;28;19923;-87
2023/02/14 03:07:33;;;;;;;;;;;;;;;21.79;26.30;99844.47;5100350;28;19920;-87
2023/02/14 03:10:01;;;;;;;;;;;;;;;21.70;26.22;99832.75;5096046;28;19916;-88
2023/02/14 03:12:33;;;;;;;;;;;;;;;22.15;25.65;99840.22;5109896;28;20108;-88
2023/02/14 03:15:31;;;;;;;;;;;;;;;21.87;25.89;99849.03;5111983;27;19919;-87
2023/02/14 03:18:03;;;;;;;;;;;;;;;22.03;25.77;99851.66;5066899;28;19920;-87
2023/02/14 03:20:49;;;;;;;;;;;;;;;22.32;25.55;99848.06;5116645;28;19962;-87
2023/02/14 03:23:24;;;;;;;;;;;;;;;21.76;26.04;99847.22;5066348;28;19920;-87
2023/02/14 03:26:09;;;;;;;;;;;;;;;22.47;24.93;99854.66;5115336;28;19945;-87
2023/02/14 03:28:41;;;;;;;;;;;;;;;22.32;25.53;99850.88;5112874;28;19968;-88
2023/02/14 03:31:09;;;;;;;;;;;;;;;22.35;25.19;99852.09;5116082;28;20332;-88
2023/02/14 03:33:42;;;;;;;;;;;;;;;22.60;24.82;99858.81;5115334;28;20598;-87
2023/02/14 03:36:11;;;;;;;;;;;;;;;22.37;25.15;99866.50;5111807;28;19969;-87
2023/02/14 03:38:45;;;;;;;;;;;;;;;22.39;25.29;99858.53;5103394;28;19920;-88
2023/02/14 03:41:14;;;;;;;;;;;;;;;22.64;24.90;99859.69;5107557;28;20402;-88
2023/02/14 03:43:43;;;;;;;;;;;;;;;22.80;24.68;99857.47;5112153;28;19920;-87
2023/02/14 03:46:13;;;;;;;;;;;;;;;22.12;25.22;99860.59;5112456;28;20438;-87
2023/02/14 03:48:40;;;;;;;;;;;;;;;22.41;25.40;99856.16;5103384;28;19920;-87
2023/02/14 03:51:07;;;;;;;;;;;;;;;21.60;26.23;99854.94;5099909;28;19920;-87
2023/02/14 03:53:35;;;;;;;;;;;;;;;21.69;25.88;99867.47;5114908;28;20394;-87
2023/02/14 03:56:12;;;;;;;;;;;;;;;21.88;25.79;99861.00;5100388;28;19920;-87
2023/02/14 03:58:40;;;;;;;;;;;;;;;20.95;26.88;99860.56;5104779;28;19920;-87
2023/02/14 04:01:24;;;;;;;;;;;;;;;21.72;25.92;99855.56;5114285;28;20310;-87
2023/02/14 04:03:52;;;;;;;;;;;;;;;21.67;25.95;99860.66;5107373;28;19920;-87
2023/02/14 04:06:19;;;;;;;;;;;;;;;21.48;26.21;99857.94;5100477;27;19931;-88
2023/02/14 04:08:45;;;;;;;;;;;;;;;22.23;25.38;99864.34;5110362;28;20039;-88
2023/02/14 04:11:11;;;;;;;;;;;;;;;22.08;25.29;99868.09;5077498;28;20002;-88
2023/02/14 04:13:37;;;;;;;;;;;;;;;22.63;24.93;99864.50;5104448;28;19916;-88
2023/02/14 04:16:04;;;;;;;;;;;;;;;22.56;24.91;99869.97;5112288;28;19927;-87
2023/02/14 04:21:14;;;;;;;;;;;;;;;22.62;24.87;99870.47;5096851;28;19988;-88
2023/02/14 04:23:41;;;;;;;;;;;;;;;22.42;24.93;99866.19;5112075;28;19922;-87
2023/02/14 04:26:07;;;;;;;;;;;;;;;21.92;25.74;99868.28;5112607;28;19920;-88
2023/02/14 04:28:33;;;;;;;;;;;;;;;22.31;25.34;99866.03;5105484;28;20236;-88
2023/02/14 04:31:04;;;;;;;;;;;;;;;22.86;24.50;99872.75;5091446;28;19927;-87
2023/02/14 04:33:30;;;;;;;;;;;;;;;22.62;24.79;99882.47;5105045;28;19924;-88
2023/02/14 04:35:56;;;;;;;;;;;;;;;22.77;24.53;99874.25;5107212;28;20360;-88
2023/02/14 04:38:22;;;;;;;;;;;;;;;23.07;24.27;99883.41;5096028;27;20306;-87
2023/02/14 04:40:48;;;;;;;;;;;;;;;21.92;25.31;99873.88;5114619;28;19965;-87
2023/02/14 04:43:15;;;;;;;;;;;;;;;21.96;25.50;99876.72;5110737;28;19951;-87
2023/02/14 04:45:41;;;;;;;;;;;;;;;22.08;25.25;99881.31;5113147;28;20010;-88
2023/02/14 04:48:07;;;;;;;;;;;;;;;22.13;25.12;99883.75;5110903;27;19980;-87
2023/02/14 04:50:33;;;;;;;;;;;;;;;22.80;24.45;99885.47;5110332;28;20383;-87
2023/02/14 04:52:59;;;;;;;;;;;;;;;22.56;24.31;99881.19;5111156;28;19919;-88
2023/02/14 04:55:25;;;;;;;;;;;;;;;22.74;24.59;99878.63;5108218;28;19924;-87
2023/02/14 04:57:51;;;;;;;;;;;;;;;22.77;24.42;99879.84;5101528;28;19920;-87
2023/02/14 05:00:17;;;;;;;;;;;;;;;23.35;23.78;99884.53;5096459;28;20435;-88
2023/02/14 05:02:43;;;;;;;;;;;;;;;22.69;24.52;99887.34;5110252;28;20302;-88
2023/02/14 05:05:09;;;;;;;;;;;;;;;22.56;24.26;99886.78;5102010;28;19928;-87
2023/02/14 05:07:35;;;;;;;;;;;;;;;22.18;25.25;99878.66;5104862;28;20367;-86
2023/02/14 05:10:02;;;;;;;;;;;;;;;22.69;24.84;99888.16;5111741;28;19935;-88
2023/02/14 05:12:28;;;;;;;;;;;;;;;23.17;24.21;99882.72;5098403;28;19928;-88
2023/02/14 05:14:56;;;;;;;;;;;;;;;22.60;24.60;99882.06;5098809;28;20280;-90
2023/02/14 05:17:22;;;;;;;;;;;;;;;22.78;24.36;99884.28;5102358;28;19930;-87
2023/02/14 05:19:48;;;;;;;;;;;;;;;23.00;24.22;99883.31;5109695;28;19919;-86
2023/02/14 05:22:14;;;;;;;;;;;;;;;22.63;24.70;99872.09;5100770;28;20014;-85
2023/02/14 05:24:40;;;;;;;;;;;;;;;22.36;24.83;99871.28;5104874;28;19919;-86
2023/02/14 05:27:06;;;;;;;;;;;;;;;21.86;25.45;99880.97;5104592;28;19920;-87
2023/02/14 05:29:32;;;;;;;;;;;;;;;22.59;24.42;99876.81;5099744;28;19974;-86
2023/02/14 05:31:58;;;;;;;;;;;;;;;22.42;24.54;99874.59;5093000;28;19971;-85
2023/02/14 05:34:24;;;;;;;;;;;;;;;22.67;24.49;99875.72;5094750;28;19931;-86
2023/02/14 05:36:50;;;;;;;;;;;;;;;22.36;24.77;99878.88;5104347;28;19925;-86
2023/02/14 05:39:17;;;;;;;;;;;;;;;23.04;24.46;99873.75;5106336;28;19920;-86
2023/02/14 05:41:43;;;;;;;;;;;;;;;23.51;23.82;99878.66;5101254;28;20368;-87
2023/02/14 05:44:09;;;;;;;;;;;;;;;23.80;23.40;99874.91;5099331;28;19926;-85
2023/02/14 05:46:35;;;;;;;;;;;;;;;24.10;23.35;99880.34;5106823;28;19930;-87
2023/02/14 05:49:04;;;;;;;;;;;;;;;24.27;23.06;99885.25;5088903;28;20397;-88
2023/02/14 05:51:30;;;;;;;;;;;;;;;24.32;22.82;99886.91;5100290;28;19920;-88
2023/02/14 05:53:58;;;;;;;;;;;;;;;24.37;22.66;99884.53;5102652;28;19922;-89
2023/02/14 05:56:24;;;;;;;;;;;;;;;23.80;22.96;99890.94;5097147;28;19969;-87
2023/02/14 05:58:50;;;;;;;;;;;;;;;23.63;23.25;99892.38;5093396;28;19912;-87
2023/02/14 06:01:17;;;;;;;;;;;;;;;23.64;23.14;99896.78;5093249;28;19923;-87
2023/02/14 06:03:43;;;;;;;;;;;;;;;23.66;23.04;99888.81;5099188;28;19919;-86
2023/02/14 06:06:09;;;;;;;;;;;;;;;23.47;23.22;99885.44;5114439;28;19920;-87
2023/02/14 06:08:35;;;;;;;;;;;;;;;23.39;23.47;99890.16;5114031;28;20295;-87
2023/02/14 06:11:01;;;;;;;;;;;;;;;23.50;23.52;99890.28;5118132;28;19920;-87
2023/02/14 06:13:27;;;;;;;;;;;;;;;22.51;24.61;99903.91;5118151;28;19942;-86
2023/02/14 06:15:53;;;;;;;;;;;;;;;22.26;25.08;99899.97;5098735;28;19939;-87
2023/02/14 06:18:19;;;;;;;;;;;;;;;21.99;24.99;99896.34;5097378;28;20388;-87
2023/02/14 06:20:45;;;;;;;;;;;;;;;22.25;25.09;99905.91;5100373;28;20509;-87
2023/02/14 06:23:11;;;;;;;;;;;;;;;22.63;24.38;99903.69;5106110;28;19957;-87
2023/02/14 06:25:37;;;;;;;;;;;;;;;22.10;25.12;99901.31;5117423;28;19926;-87
2023/02/14 06:28:03;;;;;;;;;;;;;;;22.32;24.77;99901.22;5117708;28;20409;-87
2023/02/14 06:30:29;;;;;;;;;;;;;;;21.56;25.94;99898.81;5099238;28;20341;-87
2023/02/14 06:32:55;;;;;;;;;;;;;;;21.25;26.33;99900.66;5097741;28;19924;-87
2023/02/14 06:35:21;;;;;;;;;;;;;;;21.19;26.44;99907.72;5097621;28;19924;-86
2023/02/14 06:37:47;;;;;;;;;;;;;;;21.08;26.60;99898.34;5103719;28;20256;-87
2023/02/14 06:40:13;;;;;;;;;;;;;;;20.88;27.17;99901.50;5117564;28;19963;-87
2023/02/14 06:42:40;;;;;;;;;;;;;;;21.43;26.09;99897.34;5117271;28;19916;-87
2023/02/14 06:45:06;;;;;;;;;;;;;;;20.52;27.51;99905.53;5108425;28;19927;-86
2023/02/14 06:47:32;;;;;;;;;;;;;;;21.43;26.18;99903.75;5096819;28;19920;-87
2023/02/14 06:50:03;;;;;;;;;;;;;;;21.42;25.86;99898.56;5116074;28;20331;-87
2023/02/14 06:52:30;;;;;;;;;;;;;;;21.30;26.22;99891.97;5117521;28;19957;-86
2023/02/14 06:54:56;;;;;;;;;;;;;;;21.90;25.61;99881.03;5117227;28;20366;-86
2023/02/14 06:57:22;;;;;;;;;;;;;;;21.56;26.08;99891.22;5094755;28;19945;-86
2023/02/14 06:59:48;;;;;;;;;;;;;;;21.02;26.45;99887.81;5096901;28;20291;-86
2023/02/14 07:02:14;;;;;;;;;;;;;;;21.38;26.15;99901.28;5096248;28;19921;-86
2023/02/14 07:04:40;;;;;;;;;;;;;;;21.98;25.66;99899.53;5078900;28;19920;-86
2023/02/14 07:07:06;;;;;;;;;;;;;;;21.65;25.63;99900.16;5096557;28;19916;-86
2023/02/14 07:09:32;;;;;;;;;;;;;;;21.15;26.51;99898.47;5096875;28;19916;-86
2023/02/14 07:11:58;;;;;;;;;;;;;;;20.75;27.20;99906.41;5086422;28;19942;-87
2023/02/14 07:14:24;;;;;;;;;;;;;;;20.76;27.29;99896.88;5117042;28;20391;-87
2023/02/14 07:16:50;;;;;;;;;;;;;;;19.87;28.13;99899.66;5098228;28;19941;-86
2023/02/14 07:19:16;;;;;;;;;;;;;;;20.45;27.20;99905.38;5116676;28;19922;-87
2023/02/14 07:21:42;;;;;;;;;;;;;;;20.56;27.04;99906.44;5114824;28;19922;-87
2023/02/14 07:24:08;;;;;;;;;;;;;;;20.96;26.56;99906.84;5096172;28;19916;-86
2023/02/14 07:26:34;;;;;;;;;;;;;;;21.33;26.28;99904.41;5106076;28;19919;-87
2023/02/14 07:29:00;;;;;;;;;;;;;;;20.52;27.35;99911.91;5116548;28;19916;-87
2023/02/14 07:31:26;;;;;;;;;;;;;;;20.54;27.27;99919.91;5116586;28;19937;-87
2023/02/14 07:33:52;;;;;;;;;;;;;;;20.57;27.65;99919.19;5116229;28;20006;-86
2023/02/14 07:36:18;;;;;;;;;;;;;;;20.70;27.52;99920.66;5117370;28;19920;-87
2023/02/14 07:38:45;;;;;;;;;;;;;;;20.32;28.18;99929.00;5115184;28;19927;-87
2023/02/14 07:41:11;;;;;;;;;;;;;;;21.10;26.55;99928.69;5096229;28;19920;-87
2023/02/14 07:43:38;;;;;;;;;;;;;;;20.37;28.20;99920.34;5096006;28;19923;-87
2023/02/14 07:46:04;;;;;;;;;;;;;;;21.56;26.12;99923.97;5104055;28;19920;-86
2023/02/14 07:48:30;;;;;;;;;;;;;;;22.44;25.23;99920.59;5115624;28;19927;-87
2023/02/14 07:50:56;;;;;;;;;;;;;;;21.19;26.50;99920.91;5116138;28;19973;-87
2023/02/14 07:53:22;;;;;;;;;;;;;;;21.56;26.05;99926.75;5116339;28;20439;-87
2023/02/14 07:55:49;;;;;;;;;;;;;;;22.29;25.02;99926.34;5114914;28;19916;-86
2023/02/14 07:58:15;;;;;;;;;;;;;;;21.01;26.89;99928.88;5116719;28;20382;-86
2023/02/14 08:00:41;;;;;;;;;;;;;;;21.04;26.91;99935.72;5115782;28;19915;-86
2023/02/14 08:03:07;;;;;;;;;;;;;;;21.69;25.78;99925.38;5115809;28;19923;-87
2023/02/14 08:05:34;;;;;;;;;;;;;;;20.72;27.27;99931.47;5115649;28;19920;-86
2023/02/14 08:08:00;;;;;;;;;;;;;;;20.59;27.65;99933.59;5116116;28;20399;-86
2023/02/14 08:10:26;;;;;;;;;;;;;;;20.77;27.31;99926.38;5115902;28;19982;-87
2023/02/14 08:12:58;;;;;;;;;;;;;;;19.85;29.05;99923.47;5100696;28;20372;-86
2023/02/14 08:18:10;;;;;;;;;;;;;;;20.33;28.01;99930.59;5095540;28;19924;-86
2023/02/14 08:20:36;;;;;;;;;;;;;;;20.75;27.42;99925.94;5108373;28;19954;-86
2023/02/14 08:23:02;;;;;;;;;;;;;;;20.83;27.01;99924.13;5115582;28;19915;-86
2023/02/14 08:25:29;;;;;;;;;;;;;;;21.38;26.59;99928.44;5115388;28;19912;-85
2023/02/14 08:27:55;;;;;;;;;;;;;;;20.66;27.43;99933.75;5115065;28;19919;-86
2023/02/14 08:30:21;;;;;;;;;;;;;;;21.00;27.28;99938.47;5114811;28;20377;-86
2023/02/14 08:32:47;;;;;;;;;;;;;;;21.36;26.66;99931.56;5113756;28;20383;-86
2023/02/14 08:35:13;;;;;;;;;;;;;;;20.76;27.20;99922.00;5115628;28;19920;-86
2023/02/14 08:37:39;;;;;;;;;;;;;;;20.41;28.30;99932.38;5096843;28;19930;-86
2023/02/14 08:40:05;;;;;;;;;;;;;;;20.23;28.74;99933.97;5092797;28;19928;-86
2023/02/14 08:42:31;;;;;;;;;;;;;;;20.87;27.39;99928.59;5093973;28;20007;-86
2023/02/14 08:44:57;;;;;;;;;;;;;;;20.83;28.58;99943.66;5094751;28;20012;-86
2023/02/14 08:47:23;;;;;;;;;;;;;;;19.72;29.36;99949.84;5100062;28;20375;-86
2023/02/14 08:49:49;;;;;;;;;;;;;;;21.05;27.21;99938.16;5114922;28;20012;-86
2023/02/14 08:52:16;;;;;;;;;;;;;;;20.34;28.75;99937.81;5114900;28;19958;-86
2023/02/14 08:54:42;;;;;;;;;;;;;;;20.38;28.47;99947.06;5096535;28;19916;-86
2023/02/14 08:57:08;;;;;;;;;;;;;;;21.25;27.52;99945.38;5114502;28;20329;-86
2023/02/14 08:59:34;;;;;;;;;;;;;;;20.64;28.64;99947.25;5114826;28;19946;-86
2023/02/14 09:02:00;;;;;;;;;;;;;;;20.60;28.36;99946.38;5114696;28;19923;-86
2023/02/14 09:04:26;;;;;;;;;;;;;;;21.40;27.47;99954.00;5113816;28;20291;-86
2023/02/14 09:06:52;;;;;;;;;;;;;;;20.57;28.68;99947.91;5108952;28;20026;-86
2023/02/14 09:09:18;;;;;;;;;;;;;;;20.04;29.58;99958.97;5114601;28;19962;-86
2023/02/14 09:11:44;;;;;;;;;;;;;;;21.11;27.74;99961.03;5114297;28;20283;-86
2023/02/14 09:14:10;;;;;;;;;;;;;;;21.18;27.15;99956.41;5114830;28;19911;-86
2023/02/14 09:16:36;;;;;;;;;;;;;;;21.35;27.31;99963.50;5114817;28;19976;-86
2023/02/14 09:19:02;;;;;;;;;;;;;;;21.99;26.31;99965.47;5112748;28;19955;-86
2023/02/14 09:21:28;;;;;;;;;;;;;;;22.59;25.79;99969.97;5100713;28;19923;-86
2023/02/14 09:23:54;;;;;;;;;;;;;;;21.76;27.00;99971.03;5094211;28;19916;-86
2023/02/14 09:26:20;;;;;;;;;;;;;;;22.66;25.84;99964.53;5101548;28;19919;-86
2023/02/14 09:28:46;;;;;;;;;;;;;;;21.85;26.86;99974.44;5114040;28;20326;-86
2023/02/14 09:31:14;;;;;;;;;;;;;;;22.29;26.48;99976.72;5114333;28;20314;-86
2023/02/14 09:36:25;;;;;;;;;;;;;;;22.00;26.56;99975.47;5114262;28;20458;-86
2023/02/14 09:38:51;;;;;;;;;;;;;;;22.92;25.45;99983.25;5110212;28;19971;-86
2023/02/14 09:41:37;;;;;;;;;;;;;;;22.06;27.24;99971.19;5114497;28;19920;-86
2023/02/14 09:44:15;;;;;;;;;;;;;;;21.42;27.42;99986.00;5113378;28;19938;-86
2023/02/14 09:46:49;;;;;;;;;;;;;;;21.95;26.25;99981.38;5095865;28;20337;-86
2023/02/14 09:49:17;;;;;;;;;;;;;;;21.64;27.88;99985.19;5095844;28;19919;-86
2023/02/14 09:51:47;;;;;;;;;;;;;;;21.80;27.38;99977.50;5114012;28;19922;-86
2023/02/14 09:54:17;;;;;;;;;;;;;;;21.71;27.47;99970.53;5113673;28;20367;-86
2023/02/14 09:56:52;;;;;;;;;;;;;;;22.56;26.33;99970.75;5096741;28;19956;-86
2023/02/14 09:59:18;;;;;;;;;;;;;;;22.15;27.08;99968.13;5094054;28;19928;-86
2023/02/14 10:01:48;;;;;;;;;;;;;;;22.22;26.56;99979.44;5109976;28;19923;-86
2023/02/14 10:04:14;;;;;;;;;;;;;;;21.42;26.85;99969.22;5116185;28;19967;-86
2023/02/14 10:06:48;;;;;;;;;;;;;;;21.44;27.26;99971.66;5095929;28;19920;-86
2023/02/14 10:09:27;;;;;;;;;;;;;;;20.96;28.04;99978.63;5113749;28;20357;-86
2023/02/14 10:11:53;;;;;;;;;;;;;;;21.28;28.06;99968.97;5112208;28;19969;-86
2023/02/14 10:14:22;;;;;;;;;;;;;;;21.19;27.77;99966.38;5093509;28;19941;-86
2023/02/14 10:16:51;;;;;;;;;;;;;;;20.97;28.63;99967.09;5075412;28;19922;-86
2023/02/14 10:19:26;;;;;;;;;;;;;;;20.37;28.67;99967.78;5103454;28;20367;-86
2023/02/14 10:22:01;;;;;;;;;;;;;;;20.86;28.65;99976.44;5113813;28;19917;-86
2023/02/14 10:24:30;;;;;;;;;;;;;;;22.14;27.77;99964.53;5113444;28;19912;-85
2023/02/14 10:27:08;;;;;;;;;;;;;;;23.23;25.74;99959.63;5113817;28;20384;-86
2023/02/14 10:29:34;;;;;;;;;;;;;;;22.43;26.98;99963.75;5105939;28;20355;-86
2023/02/14 10:32:01;;;;;;;;;;;;;;;21.55;27.59;99965.06;5093214;28;20011;-86
2023/02/14 10:34:33;;;;;;;;;;;;;;;20.12;29.85;99972.72;5093860;28;19916;-86
2023/02/14 10:36:59;;;;;;;;;;;;;;;20.18;29.57;99964.91;5100427;28;19921;-86
2023/02/14 10:39:30;;;;;;;;;;;;;;;20.90;28.38;99964.16;5076389;28;21277;-86
2023/02/14 10:41:56;;;;;;;;;;;;;;;21.83;28.94;99953.56;5113494;28;19923;-86
2023/02/14 10:44:41;;;;;;;;;;;;;;;20.97;28.72;99960.72;5113938;28;19961;-86
2023/02/14 10:47:25;;;;;;;;;;;;;;;20.76;29.61;99958.28;5101511;28;20275;-85
2023/02/14 10:49:55;;;;;;;;;;;;;;;21.28;29.17;99961.38;5113163;28;20003;-86
2023/02/14 10:52:24;;;;;;;;;;;;;;;21.27;27.89;99964.53;5113045;28;19926;-86
2023/02/14 10:54:58;;;;;;;;;;;;;;;22.60;27.04;99954.00;5103356;28;19923;-86
2023/02/14 10:57:30;;;;;;;;;;;;;;;22.69;27.00;99948.94;5096987;28;20399;-86
2023/02/14 10:59:56;;;;;;;;;;;;;;;23.75;24.93;99953.00;5096729;28;19965;-85
2023/02/14 11:02:33;;;;;;;;;;;;;;;22.58;27.17;99951.59;5098774;28;19916;-85
2023/02/14 11:05:01;;;;;;;;;;;;;;;22.41;27.20;99945.72;5097143;28;20368;-85
2023/02/14 11:07:28;;;;;;;;;;;;;;;22.35;26.22;99936.88;5096427;28;19916;-86
2023/02/14 11:09:55;;;;;;;;;;;;;;;23.09;25.84;99943.47;5103848;28;20434;-86
2023/02/14 11:12:38;;;;;;;;;;;;;;;23.35;25.54;99931.38;5116649;28;19923;-85
2023/02/14 11:15:18;;;;;;;;;;;;;;;23.17;25.04;99939.56;5098778;28;19942;-86
2023/02/14 11:17:45;;;;;;;;;;;;;;;23.40;25.12;99933.81;5116788;28;19916;-85
2023/02/14 11:20:21;;;;;;;;;;;;;;;23.27;25.23;99938.03;5112300;28;20364;-85
2023/02/14 11:22:47;;;;;;;;;;;;;;;22.99;25.51;99930.13;5096574;28;19920;-85
2023/02/14 11:25:18;;;;;;;;;;;;;;;23.20;26.10;99929.56;5096162;28;19984;-85
2023/02/14 11:27:48;;;;;;;;;;;;;;;22.53;25.44;99932.31;5115487;28;20017;-84
2023/02/14 11:30:21;;;;;;;;;;;;;;;22.13;27.00;99932.13;5116503;28;20360;-85
2023/02/14 11:32:53;;;;;;;;;;;;;;;20.60;29.95;99927.66;5116341;28;19924;-85
2023/02/14 11:35:23;;;;;;;;;;;;;;;21.05;27.82;99931.78;5109582;28;19920;-85
2023/02/14 11:37:49;;;;;;;;;;;;;;;21.45;26.94;99926.56;5097140;28;19920;-85
2023/02/14 11:40:26;;;;;;;;;;;;;;;22.29;26.04;99923.56;5095878;28;19972;-85
2023/02/14 11:42:52;;;;;;;;;;;;;;;21.42;26.67;99918.13;5096139;28;20276;-84
2023/02/14 11:45:25;;;;;;;;;;;;;;;21.17;28.83;99912.06;5115002;28;19916;-85
2023/02/14 11:48:27;;;;;;;;;;;;;;;21.20;28.02;99911.31;5115098;28;20375;-85
2023/02/14 11:51:04;;;;;;;;;;;;;;;20.88;28.56;99916.28;5033403;28;19921;-84
2023/02/14 11:53:36;;;;;;;;;;;;;;;20.67;28.48;99911.06;5105375;28;19915;-84
2023/02/14 11:56:02;;;;;;;;;;;;;;;21.91;26.83;99910.63;5115347;28;19916;-86
2023/02/14 11:58:33;;;;;;;;;;;;;;;21.69;26.80;99906.63;5116157;28;19955;-85
2023/02/14 12:01:00;;;;;;;;;;;;;;;21.96;27.02;99910.28;5115714;28;20328;-84
2023/02/14 12:03:28;;;;;;;;;;;;;;;21.98;26.59;99911.50;5115956;28;19916;-85
2023/02/14 12:05:59;;;;;;;;;;;;;;;21.81;26.73;99900.03;5115721;28;19922;-85
2023/02/14 12:08:30;;;;;;;;;;;;;;;22.51;26.35;99901.09;5115572;28;20306;-85
2023/02/14 12:11:18;;;;;;;;;;;;;;;22.69;26.63;99896.56;5113486;28;19924;-85
2023/02/14 12:13:51;;;;;;;;;;;;;;;20.33;29.25;99899.91;5095553;28;19923;-85
2023/02/14 12:16:22;;;;;;;;;;;;;;;19.52;30.97;99895.16;5095470;28;19916;-84
2023/02/14 12:18:48;;;;;;;;;;;;;;;20.66;27.85;99903.03;5109753;28;19916;-84
2023/02/14 12:21:14;;;;;;;;;;;;;;;20.82;28.36;99889.81;5106904;28;20006;-84
2023/02/14 12:23:45;;;;;;;;;;;;;;;21.46;27.18;99886.25;5095238;28;19947;-84
2023/02/14 12:26:16;;;;;;;;;;;;;;;21.13;27.78;99892.44;5094947;28;19969;-84
2023/02/14 12:28:47;;;;;;;;;;;;;;;19.88;29.65;99895.66;5103410;28;19952;-84
2023/02/14 12:31:13;;;;;;;;;;;;;;;20.62;27.90;99888.22;5115514;28;19920;-85
2023/02/14 12:33:39;;;;;;;;;;;;;;;21.10;27.19;99893.19;5111243;28;20295;-85
2023/02/14 12:36:28;;;;;;;;;;;;;;;22.50;25.61;99879.06;5111957;28;19959;-85
2023/02/14 12:39:02;;;;;;;;;;;;;;;22.11;25.98;99874.94;5069140;28;19920;-85
2023/02/14 12:41:28;;;;;;;;;;;;;;;21.97;26.25;99876.34;5094881;28;19916;-85
2023/02/14 12:43:55;;;;;;;;;;;;;;;20.17;29.65;99877.63;5111426;28;20014;-84
2023/02/14 12:46:21;;;;;;;;;;;;;;;19.73;30.71;99874.22;5114321;28;19923;-84
2023/02/14 12:48:53;;;;;;;;;;;;;;;21.06;27.44;99872.78;5114681;28;19920;-84
2023/02/14 12:51:28;;;;;;;;;;;;;;;20.27;29.50;99873.50;5114657;28;19915;-84
2023/02/14 12:53:58;;;;;;;;;;;;;;;21.67;26.94;99867.06;5114933;28;19918;-84
2023/02/14 12:56:41;;;;;;;;;;;;;;;21.67;27.63;99867.06;5114871;28;20375;-84
2023/02/14 12:59:09;;;;;;;;;;;;;;;21.24;27.06;99859.91;5114739;28;19911;-84
2023/02/14 13:01:58;;;;;;;;;;;;;;;21.34;26.95;99862.09;5114410;28;19926;-85
2023/02/14 13:04:43;;;;;;;;;;;;;;;21.53;27.46;99852.03;5064130;28;19919;-85
2023/02/14 13:07:36;;;;;;;;;;;;;;;22.06;26.40;99850.88;5094455;28;20030;-85
2023/02/14 13:10:22;;;;;;;;;;;;;;;21.62;26.68;99853.38;5111337;28;19916;-85
2023/02/14 13:12:57;;;;;;;;;;;;;;;21.61;27.76;99851.75;5114429;28;19922;-85
2023/02/14 13:15:32;;;;;;;;;;;;;;;22.67;25.63;99842.13;5114979;28;20352;-84